Hohe Bank — ZDJU8 — position and weather

sailwx.info

Track history (hours):
 
Tides and Currents Weather Stations Pressure Air Temp Water Temp Dewpoint Dewpoint Depression Visibility Wind Speed Wind Dir Waves Ship Positions

Hohe Bank

Last reported at 2017-Oct-22 03:05 UTC. Time now 2017-Oct-22 22:59 UTC.
Position N 36°00' W 005°15'.

Length 86 m; draft 4.8 m.

Type: Cargo ship. MMSI: 236568000.

Date/timePositionNaut miles runAvg speedWind from/ knotsBaromVisibWave heightAir tempDewpointWater temp
2017-Oct-22 03:05N 36°00' W 005°15'212.5
2017-Oct-22 02:54N 36°01' W 005°18'6 0.1
2017-Oct-20 06:28N 36°06' W 005°23'3 5.8
2017-Oct-20 06:00N 36°04' W 005°21'1 2.3
2017-Oct-20 05:28N 36°03' W 005°21'4 7.6
2017-Oct-20 05:01N 35°59' W 005°23'612.1
2017-Oct-20 04:31N 35°57' W 005°30'713.0
2017-Oct-20 04:00N 35°55' W 005°38'713.1
2017-Oct-20 03:29N 35°54' W 005°46'246 8.9
2017-Oct-18 23:52N 38°17' W 009°58'4 9.7
2017-Oct-18 23:30N 38°20' W 009°59'5 9.6
2017-Oct-18 23:00N 38°25' W 009°60'5 9.7
2017-Oct-18 22:30N 38°30' W 010°01'5 9.4
2017-Oct-18 21:59N 38°35' W 010°03'5 9.5
2017-Oct-18 21:30N 38°39' W 010°04'5 9.5
2017-Oct-18 20:59N 38°44' W 010°05'5 9.9
2017-Oct-18 20:30N 38°49' W 010°05'5 9.6
2017-Oct-18 20:00N 38°54' W 010°05'5 9.9
2017-Oct-18 19:30N 38°59' W 010°05'510.4
2017-Oct-18 19:00N 39°04' W 010°05'510.6
2017-Oct-18 18:30N 39°09' W 010°05'  
2017-Oct-14 17:00N 43°48' W 006°60'510.1
2017-Oct-14 16:30N 43°47' W 006°53'510.1
2017-Oct-14 16:01N 43°47' W 006°46'510.4
2017-Oct-14 15:30N 43°46' W 006°39'510.4
2017-Oct-14 15:00N 43°46' W 006°32'510.1
2017-Oct-14 14:30N 43°46' W 006°25'510.1
2017-Oct-14 14:00N 43°46' W 006°18'510.2
2017-Oct-14 13:30N 43°45' W 006°11'510.2
2017-Oct-14 12:59N 43°45' W 006°03'510.0
2017-Oct-14 12:30N 43°44' W 005°57'510.0
2017-Oct-14 12:00N 43°44' W 005°50'5 9.5
2017-Oct-14 11:30N 43°44' W 005°43'5 9.8
2017-Oct-14 11:00N 43°43' W 005°36'5 9.9
2017-Oct-14 10:30N 43°43' W 005°30'510.0
2017-Oct-14 10:00N 43°43' W 005°23'810.0
2017-Oct-14 09:12N 43°42' W 005°11'6 9.8
2017-Oct-14 08:36N 43°42' W 005°03'1 9.6
2017-Oct-14 08:30N 43°41' W 005°02'5 9.8
2017-Oct-14 07:58N 43°41' W 004°55'7 9.9
2017-Oct-14 07:14N 43°40' W 004°45'3 9.6
2017-Oct-14 06:57N 43°40' W 004°41'4 9.6
2017-Oct-14 06:30N 43°40' W 004°35'5 9.6
2017-Oct-14 06:00N 43°40' W 004°29'5 9.6
2017-Oct-14 05:30N 43°39' W 004°22'5 9.8
2017-Oct-14 05:01N 43°39' W 004°15'5 9.8
2017-Oct-14 04:31N 43°39' W 004°09'5 9.7
2017-Oct-14 04:00N 43°38' W 004°02'5 9.8
2017-Oct-14 03:30N 43°38' W 003°55'510.0
2017-Oct-14 03:00N 43°37' W 003°48'5 9.9
2017-Oct-14 02:31N 43°37' W 003°42'510.6
2017-Oct-14 02:00N 43°37' W 003°34'510.6
2017-Oct-14 01:30N 43°36' W 003°27'510.2
2017-Oct-14 01:00N 43°36' W 003°20'5 9.9
2017-Oct-14 00:30N 43°36' W 003°13'5 9.9
2017-Oct-14 00:00N 43°35' W 003°06'5 9.8
2017-Oct-13 23:31N 43°35' W 002°59'5 9.8
2017-Oct-13 23:00N 43°35' W 002°53'5 9.8
2017-Oct-13 22:30N 43°34' W 002°46'5 9.7
2017-Oct-13 22:00N 43°34' W 002°39'5 9.6
2017-Oct-13 21:31N 43°34' W 002°33'5 9.6
2017-Oct-13 21:01N 43°33' W 002°26'5 9.7
2017-Oct-13 20:30N 43°33' W 002°19'5 9.7
2017-Oct-13 20:00N 43°33' W 002°13'5 9.7
2017-Oct-13 19:30N 43°33' W 002°06'5 9.7
2017-Oct-13 19:00N 43°33' W 001°59'5 9.4
2017-Oct-13 18:31N 43°32' W 001°53'5 9.7
2017-Oct-13 18:00N 43°32' W 001°46'5 9.6
2017-Oct-13 17:30N 43°32' W 001°39'5 9.6
2017-Oct-13 17:00N 43°32' W 001°33'2 2.8
2017-Oct-13 16:26N 43°32' W 001°31'0 0.0
2017-Oct-13 15:59N 43°32' W 001°31'0 0.0
2017-Oct-13 15:26N 43°32' W 001°31'0 0.0
2017-Oct-13 14:59N 43°32' W 001°31'0 0.0
2017-Oct-13 14:05N 43°32' W 001°31'0 0.0
2017-Oct-13 13:56N 43°32' W 001°31'0 0.0
2017-Oct-13 13:29N 43°32' W 001°31'0 0.0
2017-Oct-13 12:56N 43°32' W 001°31'0 0.0
2017-Oct-13 12:29N 43°32' W 001°31'0 0.0
2017-Oct-13 11:59N 43°32' W 001°31'0 0.0
2017-Oct-13 11:29N 43°32' W 001°31'0 0.0
2017-Oct-13 10:56N 43°32' W 001°31'0 0.0
2017-Oct-13 10:26N 43°32' W 001°31'0 0.0
2017-Oct-13 09:59N 43°32' W 001°31'0 0.0
2017-Oct-13 09:29N 43°32' W 001°31'0 0.0
2017-Oct-13 08:59N 43°32' W 001°31'0 0.0
2017-Oct-13 08:29N 43°32' W 001°31'0 0.0
2017-Oct-13 07:56N 43°32' W 001°31'0 0.0
2017-Oct-13 07:29N 43°32' W 001°31'0 0.0
2017-Oct-13 06:53N 43°32' W 001°31'0 0.0
2017-Oct-13 06:29N 43°32' W 001°31'0 0.0
2017-Oct-13 05:56N 43°32' W 001°31'0 0.0
2017-Oct-13 05:23N 43°32' W 001°31'0 0.0
2017-Oct-13 04:53N 43°32' W 001°31'0 0.0
2017-Oct-13 04:26N 43°32' W 001°31'0 0.0
2017-Oct-13 03:59N 43°32' W 001°31'0 0.0
2017-Oct-13 03:29N 43°32' W 001°31'0 0.0
2017-Oct-13 02:59N 43°32' W 001°31'0 0.0
2017-Oct-13 02:29N 43°32' W 001°31'0 0.0
2017-Oct-13 01:59N 43°32' W 001°31'0 0.0
2017-Oct-13 01:29N 43°32' W 001°31'0 0.0
2017-Oct-13 00:59N 43°32' W 001°31'0 0.0
2017-Oct-13 00:26N 43°32' W 001°31'0 0.0
2017-Oct-12 23:56N 43°32' W 001°31'0 0.0
2017-Oct-12 23:29N 43°32' W 001°31'0 0.0
2017-Oct-12 22:59N 43°32' W 001°31'0 0.0
2017-Oct-12 22:29N 43°32' W 001°31'0 0.0
2017-Oct-12 21:59N 43°32' W 001°31'0 0.0
2017-Oct-12 21:29N 43°32' W 001°31'0 0.0
2017-Oct-12 20:56N 43°32' W 001°31'0 0.0
2017-Oct-12 20:29N 43°32' W 001°31'0 0.0
2017-Oct-12 19:59N 43°32' W 001°31'0 0.0
2017-Oct-12 19:26N 43°32' W 001°31'0 0.0
2017-Oct-12 18:59N 43°32' W 001°31'0 0.0
2017-Oct-12 18:29N 43°32' W 001°31'0 0.0
2017-Oct-12 17:56N 43°32' W 001°31'0 0.0
2017-Oct-12 17:26N 43°32' W 001°31'0 0.0
2017-Oct-12 16:59N 43°32' W 001°31'0 0.0
2017-Oct-12 16:29N 43°32' W 001°31'0 0.0
2017-Oct-12 15:53N 43°32' W 001°31'0 0.0
2017-Oct-12 15:29N 43°32' W 001°31'0 0.0
2017-Oct-12 14:59N 43°32' W 001°31'0 0.0
2017-Oct-12 14:26N 43°32' W 001°31'0 0.0
2017-Oct-12 13:56N 43°32' W 001°31'0 0.0
2017-Oct-12 13:29N 43°32' W 001°31'0 0.0
2017-Oct-12 12:53N 43°32' W 001°31'0 0.0
2017-Oct-12 12:29N 43°32' W 001°31'0 0.0
2017-Oct-12 11:53N 43°32' W 001°31'0 0.0
2017-Oct-12 11:29N 43°32' W 001°31'0 0.0
2017-Oct-12 10:59N 43°32' W 001°31'0 0.0
2017-Oct-12 10:29N 43°32' W 001°31'0 0.0
2017-Oct-12 09:59N 43°32' W 001°31'0 0.0
2017-Oct-12 09:29N 43°32' W 001°31'0 0.0
2017-Oct-12 08:56N 43°32' W 001°31'0 0.0
2017-Oct-12 08:29N 43°32' W 001°31'0 0.0
2017-Oct-12 07:59N 43°32' W 001°31'0 0.0
2017-Oct-12 07:29N 43°32' W 001°31'0 0.0
2017-Oct-12 06:59N 43°32' W 001°31'0 0.0
2017-Oct-12 06:29N 43°32' W 001°31'0 0.0
2017-Oct-12 03:59N 43°32' W 001°31'0 0.0
2017-Oct-12 03:29N 43°32' W 001°31'  
Track history (hours):
 
Tides and Currents Weather Stations Pressure Air Temp Water Temp Dewpoint Dewpoint Depression Visibility Wind Speed Wind Dir Waves Ship Positions

Hohe Bank

Last reported at 2017-Oct-22 03:05 UTC. Time now 2017-Oct-22 22:59 UTC.
Position N 36°00' W 005°15'.

Length 86 m; draft 4.8 m.

Type: Cargo ship. MMSI: 236568000.

Date/timePositionNaut miles runAvg speedWind from/ knotsBaromVisibWave heightAir tempDewpointWater temp
2017-Oct-22 03:05N 36°00' W 005°15'212.5
2017-Oct-22 02:54N 36°01' W 005°18'6 0.1
2017-Oct-20 06:28N 36°06' W 005°23'3 5.8
2017-Oct-20 06:00N 36°04' W 005°21'1 2.3
2017-Oct-20 05:28N 36°03' W 005°21'4 7.6
2017-Oct-20 05:01N 35°59' W 005°23'612.1
2017-Oct-20 04:31N 35°57' W 005°30'713.0
2017-Oct-20 04:00N 35°55' W 005°38'713.1
2017-Oct-20 03:29N 35°54' W 005°46'246 8.9
2017-Oct-18 23:52N 38°17' W 009°58'4 9.7
2017-Oct-18 23:30N 38°20' W 009°59'5 9.6
2017-Oct-18 23:00N 38°25' W 009°60'5 9.7
2017-Oct-18 22:30N 38°30' W 010°01'5 9.4
2017-Oct-18 21:59N 38°35' W 010°03'5 9.5
2017-Oct-18 21:30N 38°39' W 010°04'5 9.5
2017-Oct-18 20:59N 38°44' W 010°05'5 9.9
2017-Oct-18 20:30N 38°49' W 010°05'5 9.6
2017-Oct-18 20:00N 38°54' W 010°05'5 9.9
2017-Oct-18 19:30N 38°59' W 010°05'510.4
2017-Oct-18 19:00N 39°04' W 010°05'510.6
2017-Oct-18 18:30N 39°09' W 010°05'  
2017-Oct-14 17:00N 43°48' W 006°60'510.1
2017-Oct-14 16:30N 43°47' W 006°53'510.1
2017-Oct-14 16:01N 43°47' W 006°46'510.4
2017-Oct-14 15:30N 43°46' W 006°39'510.4
2017-Oct-14 15:00N 43°46' W 006°32'510.1
2017-Oct-14 14:30N 43°46' W 006°25'510.1
2017-Oct-14 14:00N 43°46' W 006°18'510.2
2017-Oct-14 13:30N 43°45' W 006°11'510.2
2017-Oct-14 12:59N 43°45' W 006°03'510.0
2017-Oct-14 12:30N 43°44' W 005°57'510.0
2017-Oct-14 12:00N 43°44' W 005°50'5 9.5
2017-Oct-14 11:30N 43°44' W 005°43'5 9.8
2017-Oct-14 11:00N 43°43' W 005°36'5 9.9
2017-Oct-14 10:30N 43°43' W 005°30'510.0
2017-Oct-14 10:00N 43°43' W 005°23'810.0
2017-Oct-14 09:12N 43°42' W 005°11'6 9.8
2017-Oct-14 08:36N 43°42' W 005°03'1 9.6
2017-Oct-14 08:30N 43°41' W 005°02'5 9.8
2017-Oct-14 07:58N 43°41' W 004°55'7 9.9
2017-Oct-14 07:14N 43°40' W 004°45'3 9.6
2017-Oct-14 06:57N 43°40' W 004°41'4 9.6
2017-Oct-14 06:30N 43°40' W 004°35'5 9.6
2017-Oct-14 06:00N 43°40' W 004°29'5 9.6
2017-Oct-14 05:30N 43°39' W 004°22'5 9.8
2017-Oct-14 05:01N 43°39' W 004°15'5 9.8
2017-Oct-14 04:31N 43°39' W 004°09'5 9.7
2017-Oct-14 04:00N 43°38' W 004°02'5 9.8
2017-Oct-14 03:30N 43°38' W 003°55'510.0
2017-Oct-14 03:00N 43°37' W 003°48'5 9.9
2017-Oct-14 02:31N 43°37' W 003°42'510.6
2017-Oct-14 02:00N 43°37' W 003°34'510.6
2017-Oct-14 01:30N 43°36' W 003°27'510.2
2017-Oct-14 01:00N 43°36' W 003°20'5 9.9
2017-Oct-14 00:30N 43°36' W 003°13'5 9.9
2017-Oct-14 00:00N 43°35' W 003°06'5 9.8
2017-Oct-13 23:31N 43°35' W 002°59'5 9.8
2017-Oct-13 23:00N 43°35' W 002°53'5 9.8
2017-Oct-13 22:30N 43°34' W 002°46'5 9.7
2017-Oct-13 22:00N 43°34' W 002°39'5 9.6
2017-Oct-13 21:31N 43°34' W 002°33'5 9.6
2017-Oct-13 21:01N 43°33' W 002°26'5 9.7
2017-Oct-13 20:30N 43°33' W 002°19'5 9.7
2017-Oct-13 20:00N 43°33' W 002°13'5 9.7
2017-Oct-13 19:30N 43°33' W 002°06'5 9.7
2017-Oct-13 19:00N 43°33' W 001°59'5 9.4
2017-Oct-13 18:31N 43°32' W 001°53'5 9.7
2017-Oct-13 18:00N 43°32' W 001°46'5 9.6
2017-Oct-13 17:30N 43°32' W 001°39'5 9.6
2017-Oct-13 17:00N 43°32' W 001°33'2 2.8
2017-Oct-13 16:26N 43°32' W 001°31'0 0.0
2017-Oct-13 15:59N 43°32' W 001°31'0 0.0
2017-Oct-13 15:26N 43°32' W 001°31'0 0.0
2017-Oct-13 14:59N 43°32' W 001°31'0 0.0
2017-Oct-13 14:05N 43°32' W 001°31'0 0.0
2017-Oct-13 13:56N 43°32' W 001°31'0 0.0
2017-Oct-13 13:29N 43°32' W 001°31'0 0.0
2017-Oct-13 12:56N 43°32' W 001°31'0 0.0
2017-Oct-13 12:29N 43°32' W 001°31'0 0.0
2017-Oct-13 11:59N 43°32' W 001°31'0 0.0
2017-Oct-13 11:29N 43°32' W 001°31'0 0.0
2017-Oct-13 10:56N 43°32' W 001°31'0 0.0
2017-Oct-13 10:26N 43°32' W 001°31'0 0.0
2017-Oct-13 09:59N 43°32' W 001°31'0 0.0
2017-Oct-13 09:29N 43°32' W 001°31'0 0.0
2017-Oct-13 08:59N 43°32' W 001°31'0 0.0
2017-Oct-13 08:29N 43°32' W 001°31'0 0.0
2017-Oct-13 07:56N 43°32' W 001°31'0 0.0
2017-Oct-13 07:29N 43°32' W 001°31'0 0.0
2017-Oct-13 06:53N 43°32' W 001°31'0 0.0
2017-Oct-13 06:29N 43°32' W 001°31'0 0.0
2017-Oct-13 05:56N 43°32' W 001°31'0 0.0
2017-Oct-13 05:23N 43°32' W 001°31'0 0.0
2017-Oct-13 04:53N 43°32' W 001°31'0 0.0
2017-Oct-13 04:26N 43°32' W 001°31'0 0.0
2017-Oct-13 03:59N 43°32' W 001°31'0 0.0
2017-Oct-13 03:29N 43°32' W 001°31'0 0.0
2017-Oct-13 02:59N 43°32' W 001°31'0 0.0
2017-Oct-13 02:29N 43°32' W 001°31'0 0.0
2017-Oct-13 01:59N 43°32' W 001°31'0 0.0
2017-Oct-13 01:29N 43°32' W 001°31'0 0.0
2017-Oct-13 00:59N 43°32' W 001°31'0 0.0
2017-Oct-13 00:26N 43°32' W 001°31'0 0.0
2017-Oct-12 23:56N 43°32' W 001°31'0 0.0
2017-Oct-12 23:29N 43°32' W 001°31'0 0.0
2017-Oct-12 22:59N 43°32' W 001°31'0 0.0
2017-Oct-12 22:29N 43°32' W 001°31'0 0.0
2017-Oct-12 21:59N 43°32' W 001°31'0 0.0
2017-Oct-12 21:29N 43°32' W 001°31'0 0.0
2017-Oct-12 20:56N 43°32' W 001°31'0 0.0
2017-Oct-12 20:29N 43°32' W 001°31'0 0.0
2017-Oct-12 19:59N 43°32' W 001°31'0 0.0
2017-Oct-12 19:26N 43°32' W 001°31'0 0.0
2017-Oct-12 18:59N 43°32' W 001°31'0 0.0
2017-Oct-12 18:29N 43°32' W 001°31'0 0.0
2017-Oct-12 17:56N 43°32' W 001°31'0 0.0
2017-Oct-12 17:26N 43°32' W 001°31'0 0.0
2017-Oct-12 16:59N 43°32' W 001°31'0 0.0
2017-Oct-12 16:29N 43°32' W 001°31'0 0.0
2017-Oct-12 15:53N 43°32' W 001°31'0 0.0
2017-Oct-12 15:29N 43°32' W 001°31'0 0.0
2017-Oct-12 14:59N 43°32' W 001°31'0 0.0
2017-Oct-12 14:26N 43°32' W 001°31'0 0.0
2017-Oct-12 13:56N 43°32' W 001°31'0 0.0
2017-Oct-12 13:29N 43°32' W 001°31'0 0.0
2017-Oct-12 12:53N 43°32' W 001°31'0 0.0
2017-Oct-12 12:29N 43°32' W 001°31'0 0.0
2017-Oct-12 11:53N 43°32' W 001°31'0 0.0
2017-Oct-12 11:29N 43°32' W 001°31'0 0.0
2017-Oct-12 10:59N 43°32' W 001°31'0 0.0
2017-Oct-12 10:29N 43°32' W 001°31'0 0.0
2017-Oct-12 09:59N 43°32' W 001°31'0 0.0
2017-Oct-12 09:29N 43°32' W 001°31'0 0.0
2017-Oct-12 08:56N 43°32' W 001°31'0 0.0
2017-Oct-12 08:29N 43°32' W 001°31'0 0.0
2017-Oct-12 07:59N 43°32' W 001°31'0 0.0
2017-Oct-12 07:29N 43°32' W 001°31'0 0.0
2017-Oct-12 06:59N 43°32' W 001°31'0 0.0
2017-Oct-12 06:29N 43°32' W 001°31'0 0.0
2017-Oct-12 03:59N 43°32' W 001°31'0 0.0
2017-Oct-12 03:29N 43°32' W 001°31'  

Dump ship's entire track history